createdAt,value
2019-05-03T00:00:37.646Z,993.27
2019-05-03T00:01:37.763Z,993.25
2019-05-03T00:02:37.605Z,993.23
2019-05-03T00:03:37.607Z,993.25
2019-05-03T00:04:37.571Z,993.17
2019-05-03T00:05:37.558Z,993.24
2019-05-03T00:06:37.590Z,993.28
2019-05-03T00:07:37.564Z,993.31
2019-05-03T00:08:37.534Z,993.26
2019-05-03T00:09:37.515Z,993.34
2019-05-03T00:10:37.532Z,993.36
2019-05-03T00:11:37.539Z,993.32
2019-05-03T00:12:37.498Z,993.36
2019-05-03T00:13:37.480Z,993.34
2019-05-03T00:14:37.473Z,993.33
2019-05-03T00:15:37.456Z,993.36
2019-05-03T00:16:37.485Z,993.39
2019-05-03T00:17:37.472Z,993.44
2019-05-03T00:18:37.439Z,993.42
2019-05-03T00:19:37.419Z,993.44
2019-05-03T00:20:37.412Z,993.43
2019-05-03T00:21:37.382Z,993.45
2019-05-03T00:22:37.401Z,993.46
2019-05-03T00:23:37.406Z,993.45
2019-05-03T00:24:37.351Z,993.46
2019-05-03T00:25:37.352Z,993.45
2019-05-03T00:26:37.329Z,993.50
2019-05-03T00:27:37.325Z,993.42
2019-05-03T00:28:37.344Z,993.52
2019-05-03T00:29:37.338Z,993.49
2019-05-03T00:30:37.291Z,993.51
2019-05-03T00:31:37.286Z,993.53
2019-05-03T00:32:37.261Z,993.53
2019-05-03T00:33:37.255Z,993.49
2019-05-03T00:34:37.276Z,993.52
2019-05-03T00:35:37.258Z,993.55
2019-05-03T00:36:37.228Z,993.54
2019-05-03T00:37:37.223Z,993.60
2019-05-03T00:38:37.193Z,993.61
2019-05-03T00:39:37.186Z,993.59
2019-05-03T00:40:37.226Z,993.55
2019-05-03T00:41:37.178Z,993.55
2019-05-03T00:42:37.170Z,993.56
2019-05-03T00:43:37.142Z,993.61
2019-05-03T00:44:37.141Z,993.61
2019-05-03T00:45:37.126Z,993.64
2019-05-03T00:46:37.141Z,993.61
2019-05-03T00:47:37.108Z,993.62
2019-05-03T00:48:37.094Z,993.65
2019-05-03T00:49:37.075Z,993.71
2019-05-03T00:50:37.088Z,993.66
2019-05-03T00:51:37.110Z,993.68
2019-05-03T00:52:37.049Z,993.75
2019-05-03T00:53:37.035Z,993.74
2019-05-03T00:54:37.033Z,993.74
2019-05-03T00:55:37.011Z,993.73
2019-05-03T00:56:36.999Z,993.71
2019-05-03T00:57:37.053Z,993.71
2019-05-03T00:58:36.987Z,993.68
2019-05-03T00:59:36.974Z,993.71
2019-05-03T01:00:36.972Z,993.74
2019-05-03T01:01:36.949Z,993.80
2019-05-03T01:02:36.983Z,993.81
2019-05-03T01:03:36.932Z,993.84
2019-05-03T01:04:36.914Z,993.87
2019-05-03T01:05:36.934Z,993.85
2019-05-03T01:06:36.923Z,993.84
2019-05-03T01:07:36.926Z,993.83
2019-05-03T01:08:36.891Z,993.85
2019-05-03T01:09:36.869Z,993.85
2019-05-03T01:10:36.853Z,993.95
2019-05-03T01:11:36.843Z,993.89
2019-05-03T01:12:36.831Z,993.84
2019-05-03T01:13:36.852Z,993.83
2019-05-03T01:14:36.802Z,993.86
2019-05-03T01:15:36.807Z,993.91
2019-05-03T01:16:36.798Z,993.88
2019-05-03T01:17:36.784Z,993.90
2019-05-03T01:18:36.803Z,993.86
2019-05-03T01:19:36.772Z,993.85
2019-05-03T01:20:36.742Z,993.90
2019-05-03T01:21:36.740Z,993.90
2019-05-03T01:22:36.723Z,993.92
2019-05-03T01:23:36.715Z,993.98
2019-05-03T01:24:36.734Z,994.03
2019-05-03T01:25:36.683Z,993.98
2019-05-03T01:26:36.679Z,994.03
2019-05-03T01:27:36.657Z,994.00
2019-05-03T01:28:36.660Z,993.99
2019-05-03T01:29:36.670Z,993.99
2019-05-03T01:30:36.635Z,993.99
2019-05-03T01:31:36.626Z,993.96
2019-05-03T01:32:36.614Z,993.97
2019-05-03T01:33:36.602Z,994.04
2019-05-03T01:34:36.597Z,994.01
2019-05-03T01:35:36.603Z,993.99
2019-05-03T01:36:36.561Z,994.00
2019-05-03T01:37:36.552Z,993.97
2019-05-03T01:38:36.562Z,993.98
2019-05-03T01:39:36.533Z,993.98
2019-05-03T01:40:36.572Z,993.96
2019-05-03T01:41:36.503Z,993.95
2019-05-03T01:42:36.493Z,993.98
2019-05-03T01:43:36.486Z,993.89
2019-05-03T01:44:36.507Z,993.91
2019-05-03T01:45:36.495Z,993.97
2019-05-03T01:46:36.474Z,993.89
2019-05-03T01:47:36.449Z,993.92
2019-05-03T01:48:36.431Z,993.94
2019-05-03T01:49:36.424Z,993.95
2019-05-03T01:50:36.407Z,993.93
2019-05-03T01:51:36.444Z,993.93
2019-05-03T01:52:36.382Z,993.90
2019-05-03T01:53:36.454Z,993.96
2019-05-03T01:54:36.372Z,993.96
2019-05-03T01:55:44.514Z,993.93
2019-05-03T01:56:36.377Z,994.03
2019-05-03T01:57:36.379Z,994.00
2019-05-03T01:58:36.336Z,994.01
2019-05-03T01:59:36.309Z,994.07
2019-05-03T02:00:36.302Z,994.09
2019-05-03T02:01:36.301Z,994.07
2019-05-03T02:02:36.318Z,994.17
2019-05-03T02:03:36.276Z,994.02
2019-05-03T02:04:36.255Z,994.11
2019-05-03T02:05:36.240Z,994.12
2019-05-03T02:06:36.291Z,994.20
2019-05-03T02:07:36.257Z,994.22
2019-05-03T02:08:36.214Z,994.12
2019-05-03T02:09:36.207Z,994.20
2019-05-03T02:10:36.215Z,994.24
2019-05-03T02:11:36.174Z,994.22
2019-05-03T02:12:36.227Z,994.20
2019-05-03T02:13:36.188Z,994.21
2019-05-03T02:14:36.199Z,994.28
2019-05-03T02:15:36.148Z,994.22
2019-05-03T02:16:36.125Z,994.21
2019-05-03T02:17:36.113Z,994.27
2019-05-03T02:18:36.111Z,994.26
2019-05-03T02:19:36.127Z,994.26
2019-05-03T02:20:36.090Z,994.30
2019-05-03T02:21:36.085Z,994.26
2019-05-03T02:22:36.054Z,994.26
2019-05-03T02:23:36.061Z,994.26
2019-05-03T02:24:36.078Z,994.27
2019-05-03T02:25:36.059Z,994.26
2019-05-03T02:26:36.022Z,994.31
2019-05-03T02:27:36.019Z,994.29
2019-05-03T02:28:35.991Z,994.31
2019-05-03T02:29:35.986Z,994.33
2019-05-03T02:30:36.005Z,994.27
2019-05-03T02:31:35.980Z,994.29
2019-05-03T02:32:35.959Z,994.30
2019-05-03T02:33:35.938Z,994.33
2019-05-03T02:34:35.940Z,994.32
2019-05-03T02:35:35.954Z,994.28
2019-05-03T02:36:35.938Z,994.35
2019-05-03T02:37:35.904Z,994.30
2019-05-03T02:38:35.902Z,994.38
2019-05-03T02:39:36.073Z,994.31
2019-05-03T02:40:35.865Z,994.36
2019-05-03T02:41:39.102Z,994.44
2019-05-03T02:42:35.841Z,994.45
2019-05-03T02:43:36.554Z,994.36
2019-05-03T02:44:35.834Z,994.39
2019-05-03T02:45:35.805Z,994.45
2019-05-03T02:46:36.303Z,994.43
2019-05-03T02:47:35.858Z,994.46
2019-05-03T02:48:36.527Z,994.46
2019-05-03T02:49:35.771Z,994.51
2019-05-03T02:50:36.192Z,994.50
2019-05-03T02:51:36.103Z,994.46
2019-05-03T02:52:37.200Z,994.53
2019-05-03T02:53:36.135Z,994.52
2019-05-03T02:54:35.713Z,994.54
2019-05-03T02:55:36.429Z,994.56
2019-05-03T02:56:36.037Z,994.55
2019-05-03T02:57:35.724Z,994.58
2019-05-03T02:58:35.892Z,994.58
2019-05-03T02:59:35.675Z,994.58
2019-05-03T03:00:36.152Z,994.61
2019-05-03T03:01:35.922Z,994.61
2019-05-03T03:02:36.519Z,994.60
2019-05-03T03:03:36.518Z,994.61
2019-05-03T03:04:35.612Z,994.62
2019-05-03T03:05:35.589Z,994.61
2019-05-03T03:06:36.645Z,994.57
2019-05-03T03:07:37.717Z,994.64
2019-05-03T03:08:36.878Z,994.63
2019-05-03T03:09:36.123Z,994.62
2019-05-03T03:10:35.663Z,994.66
2019-05-03T03:11:35.657Z,994.72
2019-05-03T03:12:35.766Z,994.60
2019-05-03T03:13:36.923Z,994.67
2019-05-03T03:14:36.219Z,994.58
2019-05-03T03:15:36.285Z,994.59
2019-05-03T03:16:36.317Z,994.61
2019-05-03T03:17:36.432Z,994.58
2019-05-03T03:18:36.445Z,994.59
2019-05-03T03:19:35.447Z,994.56
2019-05-03T03:20:35.733Z,994.53
2019-05-03T03:21:36.028Z,994.58
2019-05-03T03:22:36.260Z,994.54
2019-05-03T03:23:35.647Z,994.54
2019-05-03T03:24:36.103Z,994.59
2019-05-03T03:25:36.136Z,994.53
2019-05-03T03:26:41.560Z,994.63
2019-05-03T03:27:36.138Z,994.59
2019-05-03T03:28:35.975Z,994.59
2019-05-03T03:29:35.903Z,994.61
2019-05-03T03:30:38.042Z,994.63
2019-05-03T03:31:37.815Z,994.59
2019-05-03T03:32:38.407Z,994.59
2019-05-03T03:33:39.729Z,994.61
2019-05-03T03:34:38.749Z,994.63
2019-05-03T03:35:38.121Z,994.65
2019-05-03T03:36:49.790Z,994.64
2019-05-03T03:37:35.501Z,994.60
2019-05-03T03:38:35.564Z,994.64
2019-05-03T03:39:36.073Z,994.70
2019-05-03T03:40:35.879Z,994.72
2019-05-03T03:41:35.415Z,994.73
2019-05-03T03:42:36.008Z,994.78
2019-05-03T03:43:35.548Z,994.82
2019-05-03T03:44:36.255Z,994.82
2019-05-03T03:45:35.933Z,994.75
2019-05-03T03:46:35.849Z,994.85
2019-05-03T03:47:35.751Z,994.78
2019-05-03T03:48:35.520Z,994.79
2019-05-03T03:49:35.673Z,994.85
2019-05-03T03:50:35.858Z,994.84
2019-05-03T03:51:35.226Z,994.84
2019-05-03T03:52:36.058Z,994.86
2019-05-03T03:53:35.725Z,994.88
2019-05-03T03:54:35.656Z,994.89
2019-05-03T03:55:35.430Z,994.85
2019-05-03T03:56:40.883Z,994.87
2019-05-03T03:57:36.040Z,994.82
2019-05-03T03:58:35.932Z,994.90
2019-05-03T03:59:36.397Z,994.91
2019-05-03T04:00:36.179Z,994.91
2019-05-03T04:01:35.114Z,994.87
2019-05-03T04:02:35.508Z,994.93
2019-05-03T04:03:36.247Z,994.96
2019-05-03T04:04:35.880Z,995.05
2019-05-03T04:05:35.870Z,994.98
2019-05-03T04:06:35.792Z,995.08
2019-05-03T04:07:36.106Z,995.05
2019-05-03T04:08:36.017Z,995.09
2019-05-03T04:09:36.408Z,995.04
2019-05-03T04:10:35.363Z,995.03
2019-05-03T04:11:35.102Z,995.10
2019-05-03T04:12:35.271Z,995.04
2019-05-03T04:13:36.087Z,995.07
2019-05-03T04:14:36.149Z,995.08
2019-05-03T04:15:37.090Z,995.14
2019-05-03T04:16:36.430Z,995.12
2019-05-03T04:17:36.112Z,995.15
2019-05-03T04:18:36.126Z,995.14
2019-05-03T04:19:36.439Z,995.20
2019-05-03T04:20:36.016Z,995.21
2019-05-03T04:21:35.860Z,995.27
2019-05-03T04:22:36.270Z,995.39
2019-05-03T04:23:35.902Z,995.28
2019-05-03T04:24:35.225Z,995.38
2019-05-03T04:25:35.631Z,995.50
2019-05-03T04:26:35.767Z,995.50
2019-05-03T04:27:36.464Z,995.55
2019-05-03T04:28:36.134Z,995.75
2019-05-03T04:29:35.689Z,995.68
2019-05-03T04:30:36.347Z,995.65
2019-05-03T04:31:36.812Z,995.62
2019-05-03T04:32:35.989Z,995.67
2019-05-03T04:33:35.891Z,995.76
2019-05-03T04:34:35.830Z,995.81
2019-05-03T04:35:36.267Z,995.80
2019-05-03T04:36:35.800Z,995.82
2019-05-03T04:37:35.886Z,995.82
2019-05-03T04:38:35.472Z,995.84
2019-05-03T04:39:35.931Z,995.78
2019-05-03T04:40:35.766Z,995.79
2019-05-03T04:41:35.702Z,995.85
2019-05-03T04:42:35.700Z,995.82
2019-05-03T04:43:35.667Z,995.81
2019-05-03T04:44:35.808Z,995.78
2019-05-03T04:45:36.770Z,995.84
2019-05-03T04:46:35.860Z,995.91
2019-05-03T04:47:35.766Z,995.88
2019-05-03T04:48:35.800Z,995.92
2019-05-03T04:49:36.224Z,995.94
2019-05-03T04:50:36.668Z,995.92
2019-05-03T04:51:35.040Z,995.99
2019-05-03T04:52:36.143Z,995.97
2019-05-03T04:53:35.761Z,995.94
2019-05-03T04:54:35.622Z,995.98
2019-05-03T04:55:36.317Z,995.97
2019-05-03T04:56:35.979Z,996.02
2019-05-03T04:57:40.440Z,996.06
2019-05-03T04:58:36.403Z,996.02
2019-05-03T04:59:35.865Z,996.00
2019-05-03T05:00:35.856Z,996.06
2019-05-03T05:01:35.266Z,996.01
2019-05-03T05:02:35.424Z,996.05
2019-05-03T05:03:36.238Z,996.08
2019-05-03T05:04:35.781Z,996.03
2019-05-03T05:05:36.380Z,996.12
2019-05-03T05:06:35.042Z,996.06
2019-05-03T05:07:35.067Z,996.10
2019-05-03T05:08:35.862Z,996.19
2019-05-03T05:09:34.918Z,996.11
2019-05-03T05:10:36.296Z,996.09
2019-05-03T05:11:35.100Z,996.14
2019-05-03T05:12:35.540Z,996.15
2019-05-03T05:13:35.645Z,996.18
2019-05-03T05:14:35.243Z,996.20
2019-05-03T05:15:35.393Z,996.18
2019-05-03T05:16:35.643Z,996.12
2019-05-03T05:17:35.486Z,996.20
2019-05-03T05:18:35.300Z,996.22
2019-05-03T05:19:35.702Z,996.19
2019-05-03T05:20:35.093Z,996.25
2019-05-03T05:21:35.527Z,996.22
2019-05-03T05:22:34.961Z,996.26
2019-05-03T05:23:35.348Z,996.29
2019-05-03T05:24:34.643Z,996.31
2019-05-03T05:25:35.469Z,996.31
2019-05-03T05:26:35.309Z,996.37
2019-05-03T05:27:34.627Z,996.30
2019-05-03T05:28:35.512Z,996.36
2019-05-03T05:29:34.619Z,996.34
2019-05-03T05:30:35.343Z,996.40
2019-05-03T05:31:35.638Z,996.36
2019-05-03T05:32:35.024Z,996.40
2019-05-03T05:33:35.347Z,996.41
2019-05-03T05:34:34.984Z,996.41
2019-05-03T05:35:35.252Z,996.47
2019-05-03T05:36:34.738Z,996.46
2019-05-03T05:37:35.239Z,996.53
2019-05-03T05:38:34.656Z,996.48
2019-05-03T05:39:35.622Z,996.50
2019-05-03T05:40:34.957Z,996.52
2019-05-03T05:41:34.766Z,996.49
2019-05-03T05:42:35.079Z,996.54
2019-05-03T05:43:35.562Z,996.61
2019-05-03T05:44:35.240Z,996.56
2019-05-03T05:45:34.826Z,996.49
2019-05-03T05:46:35.174Z,996.52
2019-05-03T05:47:34.536Z,996.51
2019-05-03T05:48:34.915Z,996.53
2019-05-03T05:49:35.090Z,996.50
2019-05-03T05:50:34.597Z,996.56
2019-05-03T05:51:35.328Z,996.59
2019-05-03T05:52:34.621Z,996.53
2019-05-03T05:53:35.745Z,996.52
2019-05-03T05:54:35.072Z,996.59
2019-05-03T05:55:34.464Z,996.61
2019-05-03T05:56:35.335Z,996.59
2019-05-03T05:57:34.632Z,996.54
2019-05-03T05:58:34.799Z,996.55
2019-05-03T05:59:35.026Z,996.65
2019-05-03T06:00:35.787Z,996.63
2019-05-03T06:01:35.315Z,996.61
2019-05-03T06:02:35.898Z,996.58
2019-05-03T06:03:34.414Z,996.68
2019-05-03T06:04:34.899Z,996.67
2019-05-03T06:05:35.428Z,996.62
2019-05-03T06:06:34.816Z,996.63
2019-05-03T06:07:35.125Z,996.65
2019-05-03T06:08:35.346Z,996.65
2019-05-03T06:09:34.414Z,996.68
2019-05-03T06:10:34.805Z,996.66
2019-05-03T06:11:34.742Z,996.69
2019-05-03T06:12:35.268Z,996.69
2019-05-03T06:13:34.445Z,996.77
2019-05-03T06:14:34.653Z,996.75
2019-05-03T06:15:34.494Z,996.77
2019-05-03T06:16:34.855Z,996.74
2019-05-03T06:17:34.831Z,996.73
2019-05-03T06:18:35.261Z,996.77
2019-05-03T06:19:34.545Z,996.84
2019-05-03T06:20:34.922Z,996.81
2019-05-03T06:21:35.201Z,996.81
2019-05-03T06:22:34.566Z,996.83
2019-05-03T06:23:34.759Z,996.80
2019-05-03T06:24:34.917Z,996.88
2019-05-03T06:25:35.286Z,996.82
2019-05-03T06:26:34.681Z,996.79
2019-05-03T06:27:34.712Z,996.83
2019-05-03T06:28:35.125Z,996.92
2019-05-03T06:29:35.092Z,996.94
2019-05-03T06:30:35.068Z,996.99
2019-05-03T06:31:34.406Z,996.99
2019-05-03T06:32:34.577Z,996.87
2019-05-03T06:33:34.722Z,996.86
2019-05-03T06:34:35.340Z,996.84
2019-05-03T06:35:34.577Z,996.84
2019-05-03T06:36:35.335Z,996.82
2019-05-03T06:37:35.312Z,996.85
2019-05-03T06:38:34.409Z,996.83
2019-05-03T06:39:35.064Z,996.92
2019-05-03T06:40:35.265Z,996.89
2019-05-03T06:41:35.209Z,996.94
2019-05-03T06:42:33.209Z,996.96
2019-05-03T06:43:34.862Z,996.94
2019-05-03T06:44:34.941Z,996.93
2019-05-03T06:45:35.232Z,996.89
2019-05-03T06:46:35.544Z,996.90
2019-05-03T06:47:34.855Z,996.97
2019-05-03T06:48:34.800Z,996.97
2019-05-03T06:49:34.585Z,997.03
2019-05-03T06:50:34.794Z,997.04
2019-05-03T06:51:34.969Z,997.07
2019-05-03T06:52:35.083Z,997.07
2019-05-03T06:53:34.541Z,997.04
2019-05-03T06:54:34.642Z,997.03
2019-05-03T06:55:35.093Z,996.99
2019-05-03T06:56:34.955Z,997.03
2019-05-03T06:57:33.078Z,996.99
2019-05-03T06:58:34.271Z,996.97
2019-05-03T06:59:33.018Z,997.01
2019-05-03T07:00:34.933Z,997.02
2019-05-03T07:01:34.483Z,997.04
2019-05-03T07:02:32.996Z,996.95
2019-05-03T07:03:33.021Z,996.94
2019-05-03T07:04:34.590Z,996.97
2019-05-03T07:05:32.957Z,996.97
2019-05-03T07:06:39.597Z,996.99
2019-05-03T07:07:32.958Z,997.02
2019-05-03T07:08:34.472Z,997.01
2019-05-03T07:09:32.948Z,997.00
2019-05-03T07:10:32.892Z,996.99
2019-05-03T07:11:34.728Z,997.02
2019-05-03T07:12:32.933Z,997.02
2019-05-03T07:13:34.583Z,997.05
2019-05-03T07:14:34.799Z,997.03
2019-05-03T07:15:34.970Z,997.05
2019-05-03T07:16:32.830Z,997.06
2019-05-03T07:17:34.915Z,997.02
2019-05-03T07:18:35.003Z,997.03
2019-05-03T07:19:32.833Z,997.03
2019-05-03T07:20:32.793Z,997.02
2019-05-03T07:21:32.771Z,996.96
2019-05-03T07:22:32.766Z,996.93
2019-05-03T07:23:34.746Z,997.07
2019-05-03T07:24:35.473Z,997.05
2019-05-03T07:25:34.480Z,997.08
2019-05-03T07:26:34.406Z,997.07
2019-05-03T07:27:34.865Z,997.02
2019-05-03T07:28:44.510Z,997.07
2019-05-03T07:29:33.713Z,997.07
2019-05-03T07:30:35.153Z,997.09
2019-05-03T07:31:32.664Z,997.09
2019-05-03T07:32:34.697Z,997.10
2019-05-03T07:33:34.525Z,997.16
2019-05-03T07:34:32.634Z,997.15
2019-05-03T07:35:32.627Z,997.16
2019-05-03T07:36:32.631Z,997.13
2019-05-03T07:37:34.755Z,997.15
2019-05-03T07:38:32.586Z,997.12
2019-05-03T07:39:34.695Z,997.19
2019-05-03T07:40:32.562Z,997.16
2019-05-03T07:41:32.570Z,997.19
2019-05-03T07:42:34.593Z,997.14
2019-05-03T07:43:32.582Z,997.17
2019-05-03T07:44:34.564Z,997.23
2019-05-03T07:45:32.518Z,997.20
2019-05-03T07:46:32.500Z,997.22
2019-05-03T07:47:32.500Z,997.22
2019-05-03T07:48:32.524Z,997.23
2019-05-03T07:49:32.469Z,997.26
2019-05-03T07:50:33.262Z,997.29
2019-05-03T07:51:32.441Z,997.30
2019-05-03T07:52:32.439Z,997.33
2019-05-03T07:53:34.726Z,997.34
2019-05-03T07:54:34.699Z,997.32
2019-05-03T07:55:32.402Z,997.38
2019-05-03T07:56:32.393Z,997.32
2019-05-03T07:57:32.377Z,997.28
2019-05-03T07:58:32.386Z,997.30
2019-05-03T07:59:32.389Z,997.31
2019-05-03T08:00:34.274Z,997.29
2019-05-03T08:01:32.330Z,997.27
2019-05-03T08:02:32.334Z,997.37
2019-05-03T08:03:32.356Z,997.34
2019-05-03T08:04:32.346Z,997.29
2019-05-03T08:05:32.291Z,997.28
2019-05-03T08:06:34.460Z,997.36
2019-05-03T08:07:32.274Z,997.35
2019-05-03T08:08:32.309Z,997.32
2019-05-03T08:09:32.248Z,997.28
2019-05-03T08:10:34.396Z,997.31
2019-05-03T08:11:32.230Z,997.28
2019-05-03T08:12:32.212Z,997.36
2019-05-03T08:13:32.204Z,997.32
2019-05-03T08:14:32.190Z,997.31
2019-05-03T08:15:32.228Z,997.27
2019-05-03T08:16:32.180Z,997.31
2019-05-03T08:17:32.159Z,997.34
2019-05-03T08:18:32.144Z,997.32
2019-05-03T08:19:32.135Z,997.30
2019-05-03T08:20:32.122Z,997.36
2019-05-03T08:21:32.162Z,997.36
2019-05-03T08:22:32.101Z,997.34
2019-05-03T08:23:32.096Z,997.42
2019-05-03T08:24:32.086Z,997.36
2019-05-03T08:25:32.075Z,997.32
2019-05-03T08:26:32.057Z,997.33
2019-05-03T08:27:32.115Z,997.27
2019-05-03T08:28:32.043Z,997.27
2019-05-03T08:29:32.038Z,997.31
2019-05-03T08:30:32.014Z,997.31
2019-05-03T08:31:32.002Z,997.31
2019-05-03T08:32:32.098Z,997.29
2019-05-03T08:33:31.992Z,997.36
2019-05-03T08:34:31.967Z,997.28
2019-05-03T08:35:31.986Z,997.35
2019-05-03T08:36:31.951Z,997.29
2019-05-03T08:37:31.935Z,997.29
2019-05-03T08:38:31.937Z,997.25
2019-05-03T08:39:31.912Z,997.26
2019-05-03T08:40:31.951Z,997.30
2019-05-03T08:41:31.890Z,997.33
2019-05-03T08:42:31.888Z,997.27
2019-05-03T08:43:31.868Z,997.25
2019-05-03T08:44:31.941Z,997.29
2019-05-03T08:45:31.890Z,997.25
2019-05-03T08:46:31.849Z,997.16
2019-05-03T08:47:31.824Z,997.29
2019-05-03T08:48:31.825Z,997.28
2019-05-03T08:49:31.807Z,997.26
2019-05-03T08:50:31.841Z,997.25
2019-05-03T08:51:31.786Z,997.28
2019-05-03T08:52:31.787Z,997.20
2019-05-03T08:53:31.765Z,997.24
2019-05-03T08:54:31.750Z,997.23
2019-05-03T08:55:31.788Z,997.18
2019-05-03T08:56:31.741Z,997.16
2019-05-03T08:57:31.722Z,997.17
2019-05-03T08:58:31.706Z,997.27
2019-05-03T08:59:32.719Z,997.22
2019-05-03T09:00:31.685Z,997.25
2019-05-03T09:01:31.714Z,997.19
2019-05-03T09:02:31.677Z,997.26
2019-05-03T09:03:31.685Z,997.20
2019-05-03T09:05:18.071Z,997.19
2019-05-03T09:05:31.651Z,997.19
2019-05-03T09:06:31.707Z,997.18
2019-05-03T09:07:31.611Z,997.17
2019-05-03T09:08:31.628Z,997.20
2019-05-03T09:09:31.598Z,997.22
2019-05-03T09:10:31.634Z,997.21
2019-05-03T09:11:34.347Z,997.18
2019-05-03T09:12:31.553Z,997.19
2019-05-03T09:13:31.546Z,997.24
2019-05-03T09:14:41.438Z,997.17
2019-05-03T09:15:35.097Z,997.25
2019-05-03T09:16:31.528Z,997.18
2019-05-03T09:17:31.519Z,997.18
2019-05-03T09:18:31.494Z,997.19
2019-05-03T09:19:31.485Z,997.17
2019-05-03T09:20:32.427Z,997.14
2019-05-03T09:21:31.562Z,997.18
2019-05-03T09:22:31.462Z,997.18
2019-05-03T09:23:31.439Z,997.18
2019-05-03T09:24:31.472Z,997.20
2019-05-03T09:25:31.423Z,997.20
2019-05-03T09:26:31.448Z,997.21
2019-05-03T09:27:31.386Z,997.19
2019-05-03T09:28:31.390Z,997.24
2019-05-03T09:29:41.076Z,997.14
2019-05-03T09:30:31.373Z,997.18
2019-05-03T09:31:31.347Z,997.29
2019-05-03T09:32:31.372Z,997.21
2019-05-03T09:33:31.333Z,997.23
2019-05-03T09:34:31.327Z,997.21
2019-05-03T09:35:33.771Z,997.16
2019-05-03T09:36:31.297Z,997.11
2019-05-03T09:37:31.317Z,997.19
2019-05-03T09:38:31.265Z,997.23
2019-05-03T09:39:31.265Z,997.16
2019-05-03T09:40:31.269Z,997.15
2019-05-03T09:41:31.241Z,997.15
2019-05-03T09:42:31.238Z,997.09
2019-05-03T09:43:31.257Z,997.14
2019-05-03T09:44:31.203Z,997.17
2019-05-03T09:45:31.197Z,997.13
2019-05-03T09:46:31.226Z,997.16
2019-05-03T09:47:31.181Z,997.15
2019-05-03T09:48:31.180Z,997.17
2019-05-03T09:49:31.161Z,997.13
2019-05-03T09:50:31.134Z,997.07
2019-05-03T09:51:31.165Z,997.09
2019-05-03T09:52:31.179Z,997.14
2019-05-03T09:53:31.113Z,997.13
2019-05-03T09:54:31.119Z,997.11
2019-05-03T09:55:31.084Z,997.13
2019-05-03T09:56:31.128Z,997.12
2019-05-03T09:57:31.099Z,997.17
2019-05-03T09:58:31.058Z,997.11
2019-05-03T09:59:31.046Z,997.14
2019-05-03T10:00:31.049Z,997.11
2019-05-03T10:01:31.018Z,997.16
2019-05-03T10:02:31.014Z,997.13
2019-05-03T10:03:31.083Z,997.12
2019-05-03T10:04:30.987Z,997.14
2019-05-03T10:05:30.988Z,997.15
2019-05-03T10:06:31.046Z,997.17
2019-05-03T10:07:30.953Z,997.07
2019-05-03T10:08:30.944Z,997.10
2019-05-03T10:09:30.950Z,997.11
2019-05-03T10:10:30.929Z,997.05
2019-05-03T10:11:30.922Z,997.04
2019-05-03T10:12:30.941Z,997.11
2019-05-03T10:13:30.887Z,997.07
2019-05-03T10:14:30.881Z,997.05
2019-05-03T10:15:30.864Z,997.05
2019-05-03T10:16:30.866Z,997.08
2019-05-03T10:17:30.906Z,997.03
2019-05-03T10:18:30.830Z,997.01
2019-05-03T10:19:37.627Z,997.05
2019-05-03T10:20:30.825Z,997.07
2019-05-03T10:21:30.808Z,997.06
2019-05-03T10:22:30.824Z,997.15
2019-05-03T10:23:30.811Z,997.11
2019-05-03T10:24:30.766Z,997.13
2019-05-03T10:25:30.779Z,997.11
2019-05-03T10:26:30.756Z,997.11
2019-05-03T10:27:30.739Z,997.10
2019-05-03T10:28:30.772Z,997.05
2019-05-03T10:29:30.741Z,997.06
2019-05-03T10:30:30.707Z,997.04
2019-05-03T10:31:30.687Z,997.08
2019-05-03T10:32:30.695Z,997.04
2019-05-03T10:33:30.703Z,997.05
2019-05-03T10:34:30.700Z,997.05
2019-05-03T10:35:30.644Z,997.04
2019-05-03T10:36:30.640Z,997.07
2019-05-03T10:37:30.625Z,997.14
2019-05-03T10:38:30.618Z,997.06
2019-05-03T10:39:30.643Z,997.07
2019-05-03T10:40:30.618Z,997.06
2019-05-03T10:41:30.579Z,997.07
2019-05-03T10:42:30.569Z,997.12
2019-05-03T10:43:30.574Z,997.14
2019-05-03T10:44:30.555Z,997.05
2019-05-03T10:45:30.583Z,997.07
2019-05-03T10:46:30.550Z,997.05
2019-05-03T10:47:30.560Z,997.02
2019-05-03T10:48:30.503Z,997.04
2019-05-03T10:49:30.516Z,997.05
2019-05-03T10:50:30.491Z,997.06
2019-05-03T10:51:30.498Z,997.01
2019-05-03T10:52:30.491Z,997.01
2019-05-03T10:53:30.463Z,996.96
2019-05-03T10:54:30.438Z,996.99
2019-05-03T10:55:30.432Z,996.99
2019-05-03T10:56:30.464Z,996.92
2019-05-03T10:57:30.459Z,996.95
2019-05-03T10:58:30.426Z,996.96
2019-05-03T10:59:30.389Z,996.90
2019-05-03T11:00:52.605Z,996.88
2019-05-03T11:01:31.371Z,996.86
2019-05-03T11:02:30.356Z,996.80
2019-05-03T11:03:30.382Z,996.85
2019-05-03T11:04:30.330Z,996.82
2019-05-03T11:05:30.324Z,996.84
2019-05-03T11:06:30.317Z,996.86
2019-05-03T11:07:30.337Z,996.84
2019-05-03T11:08:30.335Z,996.84
2019-05-03T11:09:30.303Z,996.83
2019-05-03T11:10:30.260Z,996.84
2019-05-03T11:11:30.255Z,996.79
2019-05-03T11:12:30.239Z,996.88
2019-05-03T11:13:30.282Z,996.84
2019-05-03T11:14:30.257Z,996.83
2019-05-03T11:15:30.246Z,996.91
2019-05-03T11:16:30.199Z,996.85
2019-05-03T11:17:30.214Z,996.85
2019-05-03T11:18:30.192Z,996.86
2019-05-03T11:19:30.211Z,996.92
2019-05-03T11:20:32.094Z,996.79
2019-05-03T11:21:31.103Z,996.96
2019-05-03T11:22:30.133Z,996.81
2019-05-03T11:23:30.135Z,996.87
2019-05-03T11:24:30.112Z,996.88
2019-05-03T11:25:30.158Z,996.89
2019-05-03T11:26:30.090Z,996.90
2019-05-03T11:27:30.080Z,996.86
2019-05-03T11:28:30.066Z,996.93
2019-05-03T11:29:30.066Z,996.93
2019-05-03T11:30:30.083Z,996.82
2019-05-03T11:31:30.046Z,996.83
2019-05-03T11:32:30.045Z,996.80
2019-05-03T11:33:30.019Z,996.80
2019-05-03T11:34:30.001Z,996.81
2019-05-03T11:35:30.077Z,996.76
2019-05-03T11:36:31.784Z,996.81
2019-05-03T11:37:29.984Z,996.86
2019-05-03T11:38:30.001Z,996.83
2019-05-03T11:39:29.950Z,996.86
2019-05-03T11:40:29.938Z,996.83
2019-05-03T11:41:32.751Z,996.84
2019-05-03T11:42:29.923Z,996.83
2019-05-03T11:43:29.917Z,996.78
2019-05-03T11:44:29.938Z,996.78
2019-05-03T11:45:29.883Z,996.83
2019-05-03T11:46:29.906Z,996.71
2019-05-03T11:47:29.897Z,996.75
2019-05-03T11:48:29.873Z,996.72
2019-05-03T11:49:29.869Z,996.74
2019-05-03T11:50:29.821Z,996.86
2019-05-03T11:51:29.822Z,996.81
2019-05-03T11:52:29.816Z,996.79
2019-05-03T11:53:29.794Z,996.80
2019-05-03T11:54:29.838Z,996.81
2019-05-03T11:55:29.768Z,996.78
2019-05-03T11:56:29.758Z,996.77
2019-05-03T11:57:29.746Z,996.83
2019-05-03T11:58:29.754Z,996.86
2019-05-03T11:59:29.765Z,996.86
2019-05-03T12:00:29.740Z,996.86
2019-05-03T12:01:29.708Z,996.85
2019-05-03T12:02:29.698Z,996.77
2019-05-03T12:03:29.988Z,996.77
2019-05-03T12:04:29.669Z,996.69
2019-05-03T12:05:29.704Z,996.74
2019-05-03T12:06:29.689Z,996.74
2019-05-03T12:07:38.833Z,996.73
2019-05-03T12:08:30.649Z,996.75
2019-05-03T12:09:29.625Z,996.78
2019-05-03T12:10:46.008Z,996.75
2019-05-03T12:11:30.634Z,996.73
2019-05-03T12:12:29.633Z,996.65
2019-05-03T12:13:29.572Z,996.67
2019-05-03T12:14:29.558Z,996.66
2019-05-03T12:15:29.573Z,996.73
2019-05-03T12:17:08.832Z,996.75
2019-05-03T12:17:30.966Z,996.77
2019-05-03T12:18:29.607Z,996.77
2019-05-03T12:19:31.542Z,996.76
2019-05-03T12:20:31.029Z,996.84
2019-05-03T12:21:30.702Z,996.80
2019-05-03T12:22:30.026Z,996.78
2019-05-03T12:23:31.510Z,996.78
2019-05-03T12:24:30.132Z,996.77
2019-05-03T12:25:30.014Z,996.84
2019-05-03T12:26:40.800Z,996.79
2019-05-03T12:27:29.421Z,996.77
2019-05-03T12:28:29.461Z,996.81